createdAt,value
2022-08-26T00:00:27.786Z,75.88
2022-08-26T00:03:08.323Z,75.96
2022-08-26T00:05:41.418Z,76.22
2022-08-26T00:08:15.122Z,75.62
2022-08-26T00:10:47.059Z,75.42
2022-08-26T00:13:19.475Z,75.47
2022-08-26T00:15:51.598Z,75.51
2022-08-26T00:18:23.759Z,75.91
2022-08-26T00:20:57.558Z,75.87
2022-08-26T00:23:29.382Z,75.84
2022-08-26T00:26:02.712Z,75.95
2022-08-26T00:28:34.845Z,76.07
2022-08-26T00:31:07.149Z,76.29
2022-08-26T00:33:39.187Z,76.34
2022-08-26T00:36:14.435Z,76.44
2022-08-26T00:38:52.546Z,76.81
2022-08-26T00:41:24.101Z,76.96
2022-08-26T00:43:56.228Z,77.22
2022-08-26T00:46:32.705Z,77.31
2022-08-26T00:49:11.647Z,77.22
2022-08-26T00:51:48.416Z,76.88
2022-08-26T00:54:23.812Z,76.84
2022-08-26T00:57:02.972Z,77.17
2022-08-26T00:59:36.081Z,77.37
2022-08-26T01:02:20.073Z,77.16
2022-08-26T01:04:57.741Z,76.92
2022-08-26T01:07:31.486Z,77.02
2022-08-26T01:10:06.703Z,77.25
2022-08-26T01:12:43.924Z,77.23
2022-08-26T01:15:20.030Z,77.38
2022-08-26T01:17:51.839Z,77.44
2022-08-26T01:20:34.076Z,77.66
2022-08-26T01:23:07.646Z,77.61
2022-08-26T01:25:43.904Z,77.77
2022-08-26T01:28:21.731Z,77.77
2022-08-26T01:30:56.027Z,77.69
2022-08-26T01:33:34.843Z,77.67
2022-08-26T01:36:15.522Z,77.49
2022-08-26T01:38:47.834Z,77.40
2022-08-26T01:41:27.169Z,77.14
2022-08-26T01:44:01.829Z,77.43
2022-08-26T01:46:34.324Z,77.52
2022-08-26T01:49:09.692Z,77.66
2022-08-26T01:51:44.462Z,77.46
2022-08-26T01:54:20.538Z,77.45
2022-08-26T01:56:55.893Z,77.55
2022-08-26T01:59:28.328Z,77.59
2022-08-26T02:02:01.891Z,77.58
2022-08-26T02:04:38.768Z,77.78
2022-08-26T02:07:12.758Z,77.77
2022-08-26T02:09:44.826Z,77.94
2022-08-26T02:12:19.482Z,78.08
2022-08-26T02:14:56.664Z,78.06
2022-08-26T02:17:35.951Z,78.33
2022-08-26T02:20:13.318Z,78.39
2022-08-26T02:22:47.813Z,78.55
2022-08-26T02:25:25.611Z,78.61
2022-08-26T02:27:57.714Z,78.36
2022-08-26T02:30:32.308Z,78.21
2022-08-26T02:33:04.912Z,78.29
2022-08-26T02:35:38.189Z,78.16
2022-08-26T02:38:11.496Z,78.23
2022-08-26T02:40:44.122Z,78.22
2022-08-26T02:43:15.673Z,78.32
2022-08-26T02:45:47.400Z,78.55
2022-08-26T02:48:22.227Z,78.52
2022-08-26T02:50:53.816Z,78.57
2022-08-26T02:53:25.754Z,78.65
2022-08-26T02:55:58.485Z,78.57
2022-08-26T02:58:31.779Z,78.56
2022-08-26T03:01:04.877Z,78.65
2022-08-26T03:03:37.019Z,78.76
2022-08-26T03:06:09.162Z,78.77
2022-08-26T03:08:40.813Z,78.67
2022-08-26T03:11:14.049Z,78.87
2022-08-26T03:13:46.969Z,78.83
2022-08-26T03:16:19.109Z,78.87
2022-08-26T03:18:52.406Z,79.01
2022-08-26T03:21:25.050Z,79.29
2022-08-26T03:23:58.508Z,79.15
2022-08-26T03:26:30.459Z,79.17
2022-08-26T03:29:19.990Z,78.98
2022-08-26T03:31:51.673Z,79.01
2022-08-26T03:34:24.336Z,79.28
2022-08-26T03:36:57.429Z,79.21
2022-08-26T03:39:31.425Z,79.32
2022-08-26T03:42:03.377Z,79.33
2022-08-26T03:44:35.072Z,79.35
2022-08-26T03:47:08.774Z,79.29
2022-08-26T03:49:40.653Z,79.48
2022-08-26T03:52:12.242Z,79.56
2022-08-26T03:54:44.202Z,79.62
2022-08-26T03:57:18.864Z,79.59
2022-08-26T03:59:53.450Z,79.78
2022-08-26T04:02:26.001Z,79.87
2022-08-26T04:04:57.672Z,79.86
2022-08-26T04:07:29.377Z,80.04
2022-08-26T04:10:05.034Z,79.97
2022-08-26T04:12:37.268Z,80.34
2022-08-26T04:15:13.877Z,80.49
2022-08-26T04:17:45.776Z,80.73
2022-08-26T04:20:20.903Z,80.46
2022-08-26T04:22:52.410Z,80.18
2022-08-26T04:25:24.350Z,79.96
2022-08-26T04:27:56.026Z,80.00
2022-08-26T04:30:29.071Z,79.75
2022-08-26T04:33:04.606Z,79.55
2022-08-26T04:35:45.311Z,78.58
2022-08-26T04:38:20.927Z,77.47
2022-08-26T04:40:56.581Z,76.69
2022-08-26T04:43:30.579Z,75.70
2022-08-26T04:46:05.021Z,75.06
2022-08-26T04:48:36.749Z,73.76
2022-08-26T04:51:09.167Z,72.91
2022-08-26T04:53:41.378Z,72.30
2022-08-26T04:56:14.353Z,71.20
2022-08-26T04:58:45.905Z,69.83
2022-08-26T05:01:18.582Z,68.16
2022-08-26T05:03:50.343Z,67.31
2022-08-26T05:06:23.186Z,66.41
2022-08-26T05:08:55.325Z,65.46
2022-08-26T05:11:28.197Z,64.01
2022-08-26T05:14:02.716Z,63.11
2022-08-26T05:16:34.468Z,62.00
2022-08-26T05:19:06.918Z,61.31
2022-08-26T05:21:40.321Z,60.29
2022-08-26T05:24:13.334Z,59.08
2022-08-26T05:26:48.052Z,57.68
2022-08-26T05:29:19.840Z,56.73
2022-08-26T05:31:53.614Z,56.19
2022-08-26T05:34:30.378Z,55.11
2022-08-26T05:37:02.393Z,54.05
2022-08-26T05:39:35.584Z,53.02
2022-08-26T05:42:08.437Z,51.62
2022-08-26T05:44:55.685Z,50.70
2022-08-26T05:47:28.368Z,49.58
2022-08-26T05:50:00.589Z,48.43
2022-08-26T05:52:32.209Z,47.89
2022-08-26T05:55:03.977Z,47.14
2022-08-26T05:57:39.952Z,46.47
2022-08-26T06:00:17.191Z,45.94
2022-08-26T06:02:49.092Z,45.58
2022-08-26T06:05:21.699Z,44.11
2022-08-26T06:08:11.289Z,42.71
2022-08-26T06:10:48.049Z,42.11
2022-08-26T06:13:21.816Z,40.85
2022-08-26T06:15:55.389Z,40.60
2022-08-26T06:18:32.819Z,39.85
2022-08-26T06:21:16.304Z,38.97
2022-08-26T06:24:07.470Z,37.61
2022-08-26T06:26:50.346Z,37.46
2022-08-26T06:29:25.825Z,36.20
2022-08-26T06:31:58.993Z,35.59
2022-08-26T06:34:31.575Z,34.89
2022-08-26T06:37:06.470Z,33.94
2022-08-26T06:39:41.146Z,34.60
2022-08-26T06:42:13.474Z,34.59
2022-08-26T06:44:46.461Z,35.04
2022-08-26T06:47:18.152Z,35.65
2022-08-26T06:49:50.407Z,35.95
2022-08-26T06:52:24.632Z,35.49
2022-08-26T06:54:56.334Z,34.17
2022-08-26T06:57:28.505Z,34.63
2022-08-26T07:00:04.725Z,34.23
2022-08-26T07:02:36.470Z,34.79
2022-08-26T07:05:10.007Z,35.88
2022-08-26T07:07:41.593Z,35.94
2022-08-26T07:10:14.894Z,36.35
2022-08-26T07:12:49.018Z,35.82
2022-08-26T07:15:23.946Z,36.10
2022-08-26T07:18:03.111Z,36.27
2022-08-26T07:20:37.006Z,35.37
2022-08-26T07:23:10.319Z,35.86
2022-08-26T07:25:43.676Z,35.52
2022-08-26T07:28:15.201Z,35.73
2022-08-26T07:30:46.902Z,35.54
2022-08-26T07:33:18.796Z,35.04
2022-08-26T07:35:50.873Z,35.40
2022-08-26T07:38:22.454Z,36.04
2022-08-26T07:40:54.575Z,36.73
2022-08-26T07:43:27.400Z,37.02
2022-08-26T07:46:00.958Z,38.34
2022-08-26T07:48:32.910Z,38.24
2022-08-26T07:51:06.731Z,39.27
2022-08-26T07:53:39.866Z,39.47
2022-08-26T07:56:11.601Z,39.51
2022-08-26T07:58:45.740Z,40.29
2022-08-26T08:01:19.548Z,40.50
2022-08-26T08:03:51.867Z,40.37
2022-08-26T08:06:27.216Z,40.71
2022-08-26T08:09:00.582Z,41.33
2022-08-26T08:11:33.488Z,40.89
2022-08-26T08:14:08.278Z,41.48
2022-08-26T08:16:46.064Z,41.70
2022-08-26T08:19:19.187Z,41.92
2022-08-26T08:21:50.806Z,41.66
2022-08-26T08:24:22.973Z,41.04
2022-08-26T08:26:55.463Z,41.61
2022-08-26T08:29:29.578Z,42.34
2022-08-26T08:32:02.598Z,41.95
2022-08-26T08:34:34.371Z,42.16
2022-08-26T08:37:10.647Z,42.17
2022-08-26T08:39:42.884Z,41.48
2022-08-26T08:42:35.241Z,42.31
2022-08-26T08:45:11.605Z,42.64
2022-08-26T08:47:47.714Z,42.95
2022-08-26T08:50:27.233Z,41.47
2022-08-26T08:53:13.302Z,42.43
2022-08-26T08:56:12.200Z,41.98
2022-08-26T08:58:57.229Z,41.91
2022-08-26T09:01:37.991Z,41.92
2022-08-26T09:04:33.107Z,42.67
2022-08-26T09:07:08.070Z,42.13
2022-08-26T09:09:42.697Z,42.28
2022-08-26T09:12:29.466Z,42.62
2022-08-26T09:15:07.521Z,42.52
2022-08-26T09:17:49.268Z,41.61
2022-08-26T09:21:03.830Z,41.52
2022-08-26T09:23:37.978Z,41.09
2022-08-26T09:26:20.278Z,41.09
2022-08-26T09:28:58.612Z,41.12
2022-08-26T09:31:32.432Z,40.65
2022-08-26T09:34:17.330Z,41.18
2022-08-26T09:36:51.369Z,41.50
2022-08-26T09:39:33.208Z,40.47
2022-08-26T09:42:14.277Z,40.33
2022-08-26T09:45:00.284Z,39.43
2022-08-26T09:47:36.305Z,40.28
2022-08-26T09:50:28.835Z,39.25
2022-08-26T09:53:30.657Z,39.42
2022-08-26T09:56:19.274Z,38.70
2022-08-26T09:58:53.038Z,39.24
2022-08-26T10:01:32.906Z,38.97
2022-08-26T10:04:11.292Z,37.99
2022-08-26T10:06:55.460Z,38.04
2022-08-26T10:09:28.190Z,38.41
2022-08-26T10:12:07.701Z,37.94
2022-08-26T10:17:28.458Z,38.02
2022-08-26T10:20:32.391Z,38.37
2022-08-26T10:23:08.449Z,38.29
2022-08-26T10:25:47.392Z,36.67
2022-08-26T10:28:28.383Z,37.24
2022-08-26T10:31:05.888Z,37.48
2022-08-26T10:33:40.348Z,37.00
2022-08-26T10:36:32.264Z,36.38
2022-08-26T10:39:09.142Z,35.66
2022-08-26T10:41:50.103Z,35.25
2022-08-26T10:44:24.373Z,34.84
2022-08-26T10:46:59.835Z,34.52
2022-08-26T10:49:31.691Z,35.26
2022-08-26T10:52:16.664Z,35.38
2022-08-26T10:54:54.354Z,33.97
2022-08-26T10:57:34.337Z,34.18
2022-08-26T11:00:28.792Z,34.11
2022-08-26T11:03:09.533Z,34.15
2022-08-26T11:06:21.222Z,32.75
2022-08-26T11:08:56.341Z,33.17
2022-08-26T11:11:49.352Z,32.46
2022-08-26T11:14:53.087Z,32.85
2022-08-26T11:18:00.064Z,32.36
2022-08-26T11:20:39.288Z,33.22
2022-08-26T11:23:50.514Z,33.41
2022-08-26T11:26:43.219Z,32.92
2022-08-26T11:29:56.430Z,31.48
2022-08-26T11:32:45.584Z,31.80
2022-08-26T11:35:52.263Z,31.53
2022-08-26T11:38:30.311Z,31.29
2022-08-26T11:41:18.219Z,31.98
2022-08-26T11:43:53.674Z,32.70
2022-08-26T11:46:30.389Z,31.64
2022-08-26T11:49:07.300Z,31.37
2022-08-26T11:51:40.859Z,31.66
2022-08-26T11:54:15.831Z,31.52
2022-08-26T11:56:50.993Z,31.42
2022-08-26T12:02:19.108Z,31.33
2022-08-26T12:04:50.431Z,31.43
2022-08-26T12:07:27.025Z,30.83
2022-08-26T12:10:02.724Z,30.71
2022-08-26T12:12:38.716Z,30.14
2022-08-26T12:15:15.928Z,30.58
2022-08-26T12:17:54.292Z,30.76
2022-08-26T12:20:48.195Z,30.44
2022-08-26T12:23:29.308Z,30.78
2022-08-26T12:26:09.050Z,31.06
2022-08-26T12:28:50.842Z,31.60
2022-08-26T12:31:32.648Z,30.64
2022-08-26T12:34:07.375Z,29.77
2022-08-26T12:36:51.739Z,30.39
2022-08-26T12:39:31.394Z,30.78
2022-08-26T12:42:04.763Z,29.72
2022-08-26T12:44:53.843Z,29.74
2022-08-26T12:47:42.483Z,30.85
2022-08-26T12:50:20.754Z,30.94
2022-08-26T12:53:00.070Z,30.65
2022-08-26T12:55:41.268Z,31.00
2022-08-26T12:58:31.727Z,31.09
2022-08-26T13:01:23.669Z,30.96
2022-08-26T13:03:58.760Z,31.03
2022-08-26T13:06:31.674Z,30.39
2022-08-26T13:09:06.526Z,30.97
2022-08-26T13:12:06.336Z,30.76
2022-08-26T13:14:38.566Z,30.94
2022-08-26T13:17:13.342Z,31.11
2022-08-26T13:19:45.077Z,31.37
2022-08-26T13:22:20.342Z,31.41
2022-08-26T13:24:54.372Z,31.18
2022-08-26T13:27:27.606Z,31.37
2022-08-26T13:29:59.852Z,30.55
2022-08-26T13:32:32.782Z,31.82
2022-08-26T13:35:05.669Z,32.69
2022-08-26T13:37:37.711Z,32.53
2022-08-26T13:40:11.321Z,32.20
2022-08-26T13:42:49.931Z,32.27
2022-08-26T13:45:26.223Z,31.79
2022-08-26T13:47:58.612Z,32.11
2022-08-26T13:50:30.404Z,31.86
2022-08-26T13:53:02.281Z,32.08
2022-08-26T13:55:33.988Z,31.96
2022-08-26T13:58:05.731Z,32.28
2022-08-26T14:00:38.239Z,31.54
2022-08-26T14:03:13.625Z,32.53
2022-08-26T14:05:48.067Z,32.71
2022-08-26T14:08:20.482Z,32.40
2022-08-26T14:10:52.504Z,33.09
2022-08-26T14:13:24.487Z,33.40
2022-08-26T14:15:58.695Z,32.26
2022-08-26T14:18:33.360Z,32.92
2022-08-26T14:21:08.311Z,33.01
2022-08-26T14:23:40.174Z,32.91
2022-08-26T14:26:21.204Z,33.00
2022-08-26T14:29:04.155Z,32.32
2022-08-26T14:31:49.929Z,32.95
2022-08-26T14:34:21.603Z,33.11
2022-08-26T14:36:53.391Z,33.02
2022-08-26T14:39:26.226Z,33.24
2022-08-26T14:41:58.443Z,33.04
2022-08-26T14:44:37.579Z,33.11
2022-08-26T14:47:10.748Z,33.09
2022-08-26T14:49:42.386Z,33.39
2022-08-26T14:52:14.028Z,33.01
2022-08-26T14:54:45.790Z,33.63
2022-08-26T14:57:19.068Z,33.74
2022-08-26T14:59:50.675Z,34.29
2022-08-26T15:02:33.355Z,33.77
2022-08-26T15:05:13.662Z,33.72
2022-08-26T15:07:45.248Z,34.27
2022-08-26T15:10:18.113Z,34.42
2022-08-26T15:12:49.994Z,34.17
2022-08-26T15:15:21.981Z,34.09
2022-08-26T15:17:53.777Z,34.17
2022-08-26T15:20:25.741Z,33.61
2022-08-26T15:22:58.238Z,34.03
2022-08-26T15:25:35.157Z,34.60
2022-08-26T15:28:06.903Z,34.89
2022-08-26T15:30:39.071Z,35.17
2022-08-26T15:33:15.294Z,35.24
2022-08-26T15:35:50.342Z,34.70
2022-08-26T15:38:21.932Z,35.37
2022-08-26T15:40:53.636Z,35.01
2022-08-26T15:43:29.021Z,34.96
2022-08-26T15:46:01.140Z,35.10
2022-08-26T15:48:33.053Z,35.41
2022-08-26T15:51:06.730Z,35.40
2022-08-26T15:53:38.430Z,35.67
2022-08-26T15:56:10.243Z,36.28
2022-08-26T15:58:42.218Z,35.97
2022-08-26T16:01:18.132Z,36.18
2022-08-26T16:03:59.591Z,36.21
2022-08-26T16:06:33.901Z,36.36
2022-08-26T16:09:06.304Z,36.66
2022-08-26T16:11:40.983Z,36.56
2022-08-26T16:14:12.636Z,36.76
2022-08-26T16:16:44.329Z,36.84
2022-08-26T16:19:19.581Z,37.25
2022-08-26T16:21:51.850Z,37.66
2022-08-26T16:24:28.447Z,37.45
2022-08-26T16:27:01.956Z,37.90
2022-08-26T16:29:35.316Z,37.82
2022-08-26T16:32:08.948Z,37.68
2022-08-26T16:34:55.212Z,38.30
2022-08-26T16:37:28.598Z,38.30
2022-08-26T16:40:00.709Z,38.19
2022-08-26T16:42:32.530Z,38.35
2022-08-26T16:45:11.158Z,38.58
2022-08-26T16:47:47.392Z,38.69
2022-08-26T16:50:19.992Z,38.42
2022-08-26T16:55:49.655Z,38.65
2022-08-26T16:58:22.344Z,38.86
2022-08-26T17:00:53.986Z,38.87
2022-08-26T17:03:25.591Z,39.39
2022-08-26T17:05:57.354Z,39.37
2022-08-26T17:08:29.266Z,39.63
2022-08-26T17:11:02.897Z,40.07
2022-08-26T17:13:36.187Z,39.92
2022-08-26T17:16:36.697Z,40.60
2022-08-26T17:19:22.863Z,41.43
2022-08-26T17:22:34.546Z,41.70
2022-08-26T17:25:21.661Z,41.73
2022-08-26T17:27:53.852Z,42.46
2022-08-26T17:30:27.032Z,42.31
2022-08-26T17:33:01.601Z,42.55
2022-08-26T17:35:55.241Z,42.66
2022-08-26T17:38:29.763Z,42.50
2022-08-26T17:41:01.429Z,42.69
2022-08-26T17:43:32.979Z,42.82
2022-08-26T17:46:07.188Z,43.00
2022-08-26T17:48:40.964Z,42.99
2022-08-26T17:51:20.108Z,42.93
2022-08-26T17:54:18.926Z,42.96
2022-08-26T17:56:51.614Z,42.98
2022-08-26T17:59:24.154Z,43.20
2022-08-26T18:02:02.285Z,43.25
2022-08-26T18:04:34.087Z,43.28
2022-08-26T18:07:05.941Z,43.34
2022-08-26T18:09:37.602Z,43.65
2022-08-26T18:12:10.258Z,43.90
2022-08-26T18:14:41.932Z,44.13
2022-08-26T18:17:13.469Z,44.47
2022-08-26T18:19:49.326Z,45.05
2022-08-26T18:22:21.419Z,45.35
2022-08-26T18:24:58.732Z,45.80
2022-08-26T18:27:31.591Z,46.93
2022-08-26T18:30:03.406Z,47.58
2022-08-26T18:32:37.263Z,48.19
2022-08-26T18:35:12.719Z,48.63
2022-08-26T18:37:47.827Z,49.14
2022-08-26T18:40:19.645Z,50.01
2022-08-26T18:42:54.159Z,50.69
2022-08-26T18:45:29.023Z,51.50
2022-08-26T18:48:04.005Z,51.79
2022-08-26T18:50:38.273Z,52.11
2022-08-26T18:53:10.140Z,52.06
2022-08-26T18:55:41.660Z,52.57
2022-08-26T18:58:16.418Z,52.68
2022-08-26T19:00:48.667Z,52.60
2022-08-26T19:03:20.445Z,53.12
2022-08-26T19:05:52.112Z,53.27
2022-08-26T19:08:24.039Z,53.72
2022-08-26T19:10:55.980Z,54.10
2022-08-26T19:16:40.356Z,54.76
2022-08-26T19:19:14.650Z,54.76
2022-08-26T19:21:52.767Z,54.86
2022-08-26T19:24:28.242Z,55.19
2022-08-26T19:27:02.139Z,55.51
2022-08-26T19:29:37.163Z,55.71
2022-08-26T19:32:12.446Z,56.24
2022-08-26T19:34:45.566Z,56.48
2022-08-26T19:38:24.199Z,56.94
2022-08-26T19:40:59.649Z,57.06
2022-08-26T19:43:33.786Z,57.25
2022-08-26T19:46:11.877Z,57.32
2022-08-26T19:48:44.421Z,58.00
2022-08-26T19:51:17.926Z,58.35
2022-08-26T19:53:50.579Z,58.66
2022-08-26T19:56:23.041Z,58.94
2022-08-26T19:58:57.546Z,59.20
2022-08-26T20:01:29.346Z,59.26
2022-08-26T20:04:01.173Z,59.31
2022-08-26T20:06:44.512Z,59.17
2022-08-26T20:09:16.140Z,59.25
2022-08-26T20:11:47.929Z,59.84
2022-08-26T20:14:29.119Z,60.16
2022-08-26T20:17:01.226Z,60.45
2022-08-26T20:19:50.776Z,60.43
2022-08-26T20:22:23.030Z,60.63
2022-08-26T20:24:58.123Z,60.56
2022-08-26T20:27:37.697Z,60.57
2022-08-26T20:30:13.813Z,60.70
2022-08-26T20:32:45.752Z,60.94
2022-08-26T20:35:18.127Z,61.01
2022-08-26T20:37:49.769Z,61.45
2022-08-26T20:40:22.584Z,61.69
2022-08-26T20:42:54.377Z,62.15
2022-08-26T20:45:26.392Z,62.50
2022-08-26T20:47:59.899Z,62.47
2022-08-26T20:50:32.674Z,62.50
2022-08-26T20:53:05.733Z,62.58
2022-08-26T20:55:37.509Z,62.65
2022-08-26T20:58:09.298Z,62.86
2022-08-26T21:00:41.760Z,63.00
2022-08-26T21:03:14.443Z,63.18
2022-08-26T21:05:50.407Z,63.07
2022-08-26T21:08:22.296Z,63.29
2022-08-26T21:10:54.159Z,63.51
2022-08-26T21:13:25.723Z,63.88
2022-08-26T21:16:00.212Z,63.94
2022-08-26T21:18:32.111Z,63.76
2022-08-26T21:21:06.083Z,63.84
2022-08-26T21:23:38.760Z,64.03
2022-08-26T21:26:13.285Z,64.11
2022-08-26T21:28:47.325Z,64.34
2022-08-26T21:31:23.608Z,64.59
2022-08-26T21:33:55.291Z,64.87
2022-08-26T21:36:30.175Z,64.87
2022-08-26T21:39:02.887Z,65.06
2022-08-26T21:41:34.656Z,65.33
2022-08-26T21:44:06.739Z,65.31
2022-08-26T21:46:42.398Z,65.21
2022-08-26T21:49:16.728Z,65.31
2022-08-26T21:51:52.924Z,65.31
2022-08-26T21:54:24.670Z,65.45
2022-08-26T21:56:58.767Z,65.52
2022-08-26T21:59:30.537Z,65.76
2022-08-26T22:02:02.317Z,65.91
2022-08-26T22:04:35.632Z,66.07
2022-08-26T22:07:07.476Z,66.11
2022-08-26T22:09:40.098Z,66.18
2022-08-26T22:12:18.494Z,66.20
2022-08-26T22:14:50.206Z,66.26
2022-08-26T22:17:22.547Z,66.45
2022-08-26T22:19:55.178Z,66.99
2022-08-26T22:22:29.713Z,67.34
2022-08-26T22:25:01.692Z,67.63
2022-08-26T22:27:35.019Z,67.80
2022-08-26T22:30:15.016Z,67.78
2022-08-26T22:32:47.236Z,67.86
2022-08-26T22:35:29.337Z,67.84
2022-08-26T22:38:01.704Z,68.00
2022-08-26T22:40:34.888Z,67.70
2022-08-26T22:43:12.155Z,67.58
2022-08-26T22:45:46.727Z,67.55
2022-08-26T22:48:20.464Z,67.68
2022-08-26T22:50:59.557Z,67.91
2022-08-26T22:53:32.757Z,68.08
2022-08-26T22:56:09.695Z,68.38
2022-08-26T22:58:42.110Z,68.68
2022-08-26T23:01:15.537Z,69.26
2022-08-26T23:03:47.188Z,69.75
2022-08-26T23:06:19.589Z,69.86
2022-08-26T23:08:51.217Z,70.05
2022-08-26T23:11:23.246Z,69.90
2022-08-26T23:13:54.920Z,70.01
2022-08-26T23:16:26.724Z,69.79
2022-08-26T23:18:58.325Z,69.83
2022-08-26T23:21:30.019Z,69.84
2022-08-26T23:24:02.448Z,69.97
2022-08-26T23:26:34.475Z,70.14
2022-08-26T23:29:07.387Z,70.07
2022-08-26T23:31:41.445Z,70.11
2022-08-26T23:34:30.915Z,69.94
2022-08-26T23:37:02.781Z,70.27
2022-08-26T23:39:39.838Z,70.48
2022-08-26T23:42:12.475Z,70.46
2022-08-26T23:44:44.568Z,70.49
2022-08-26T23:47:16.619Z,70.59
2022-08-26T23:49:48.192Z,70.89
2022-08-26T23:52:37.272Z,71.02
2022-08-26T23:55:13.928Z,70.89
2022-08-26T23:57:47.059Z,70.45
